Tooele, Utah
Current Conditions -  °F | °C
As of 2:20 PM on Saturday 22 Nov 2014 (Local Time) from KSLC Reporting Station
Moderate Rain Moderate Rain  
Wind Chill: 37°   Ceiling: 6000
Heat Index: 45°   Visibility: 2.5mi
Dew Point: 37°   Wind: 22mph
Humidity: 74%   Direction: 190°S
Pressure: 29.74"   Gusts: 31mph
Location:  40.53°N, 112.29°W
Report Text: KSLC 222120Z 19019G27KT 2 1/2SM RA SCT047 OVC060 07/03 A2974 RMK AO2 PK WND 16035/2105 RAB04 P0001 T00720028
Loading
Personal Weather Stations






























Interactive Weather Map New forecast layout! Learn more

10-Day Weather Forecast

Advertisements
Track Severe Weather on mobile